Centerville, MA

12:50 PM EDT on September 27, 2016 (GMT -0400)
Pitchers Way | | Change Station

Elev 52 ft 41.66 °N, 70.31 °W | Updated 22 seconds ago

Light Rain
Light Rain Mist
68.4 °F
Feels Like 68.4 °F
N
0.0
Wind Variable Wind from SSW

Today
High -- | Low -- °F
--% Chance of Precip.
Yesterday
High -- | Low -- °F
Precip. -- in
Pressure 29.89 in
Visibility 6.0 miles
Clouds Mostly Cloudy 700 ft
Overcast 1300 ft
Dew Point 65 °F
Humidity 90%
Rainfall 0.68 in
Snow Depth Not available.
6:34 AM 6:29 PM
Waning Crescent, 10% visible
METAR KHYA 271556Z 26007KT 6SM -RA BR BKN007 OVC013 19/19 A2989 RMK AO2 SLP121 P0009 T01940189
Pressure 29.89 in
Visibility 6.0 miles
Clouds Mostly Cloudy 700 ft
Overcast 1300 ft
Dew Point 65 °F
Humidity 90%
Rainfall 0.68 in
Snow Depth Not available.
6:34 AM 6:29 PM
Waning Crescent, 10% visible
METAR KHYA 271556Z 26007KT 6SM -RA BR BKN007 OVC013 19/19 A2989 RMK AO2 SLP121 P0009 T01940189

10-Day Weather Forecast

Almanac

Astronomy

Sep. 27, 2016 Rise Set
Actual Time
Civil Twilight
Nautical Twilight
Astronomical Twilight
Moon
Length of Visible Light
Length of Day
Tomorrow will be .
, % of the Moon is Illuminated

Today's Extremes

State Highs State Lows

Community

WunderPhotos

Upload Photos

1,942,128 photos uploaded!

WunderBlog® & News

Nearby

Air Quality

  Air Quality AQ Index Pollutant
Not available.

Snow Depth

Station Depth Elevation

Earthquake Activity

City Distance Mag. Time & Date
Minimum magnitude displayed is 2.5.

Coastal Water Temperatures

Place Temperature

Stations

Nearby Weather Stations

Station Location Temp. Windchill Dew Point Humidity Wind Precip. Elev Updated Type
                   

Watches & Warnings

There are currently no watches in effect.